| time (UTC) | temp C | wind direction | speed KPH | gust KPH | rain 1hr cm | rain 24hr cm | rain mn cm | humidity % | barometer mb |
| 20260510153044 | 11 | 0.0 | 0.0 | 0.00 | 0.58 | 0.13 | 82 | 1013.1 | |
| 20260510151540 | 10 | 0.0 | 0.0 | 0.00 | 0.58 | 0.13 | 83 | 1013.1 | |
| 20260510150039 | 10 | 0.0 | 0.0 | 0.00 | 0.58 | 0.13 | 85 | 1012.9 | |
| 20260510144542 | 10 | 0.0 | 0.0 | 0.00 | 0.58 | 0.13 | 88 | 1012.8 | |
| 20260510143040 | 10 | 0.0 | 0.0 | 0.00 | 0.58 | 0.13 | 90 | 1012.8 | |
| 20260510141530 | 10 | 0.0 | 0.0 | 0.00 | 0.58 | 0.13 | 92 | 1012.6 | |
| 20260510140031 | 10 | 0.0 | 0.0 | 0.00 | 0.58 | 0.13 | 91 | 1012.3 | |
| 20260510134524 | -17 | 0.0 | 0.0 | 0.00 | 0.58 | 0.13 | 1012.1 | ||
| 20260510133023 | -17 | 0.0 | 0.0 | 0.00 | 0.58 | 0.13 | 1011.8 | ||
| 20260510131519 | -17 | 0.0 | 0.0 | 0.00 | 0.58 | 0.13 | 1011.8 | ||
| 20260510130014 | -17 | 0.0 | 0.0 | 0.00 | 0.58 | 0.13 | 1012.0 | ||
| 20260510124510 | -17 | 0.0 | 0.0 | 0.00 | 0.58 | 0.13 | 1011.9 | ||
| 20260510123006 | -17 | 0.0 | 0.0 | 0.00 | 0.58 | 0.13 | 1011.7 | ||
| 20260510121503 | -17 | 0.0 | 0.0 | 0.00 | 0.58 | 0.13 | 1011.4 | ||
| 20260510120057 | -17 | 0.0 | 0.0 | 0.00 | 0.58 | 0.13 | 1011.2 | ||
| 20260510114553 | -17 | 0.0 | 0.0 | 0.00 | 0.58 | 0.13 | 1011.0 | ||
| 20260510113052 | -17 | 0.0 | 0.0 | 0.00 | 0.58 | 0.13 | 1010.9 | ||
| 20260510111547 | -17 | 0.0 | 0.0 | 0.00 | 0.58 | 0.13 | 1010.5 | ||
| 20260510110046 | -17 | 0.0 | 0.0 | 0.00 | 0.58 | 0.13 | 1010.2 | ||
| 20260510104544 | -17 | 0.0 | 0.0 | 0.00 | 0.58 | 0.13 | 1009.9 | ||
| 20260510103045 | -17 | 0.0 | 0.0 | 0.00 | 0.58 | 0.13 | 1009.6 | ||
| 20260510101543 | -17 | 0.0 | 0.0 | 0.00 | 0.58 | 0.13 | 1009.6 | ||
| 20260510100043 | -17 | 0.0 | 0.0 | 0.00 | 0.58 | 0.13 | 1009.4 | ||
| 20260510094549 | -17 | 0.0 | 0.0 | 0.00 | 0.58 | 0.13 | 1009.2 | ||
| 20260510093053 | 8 | 0.0 | 0.0 | 0.00 | 0.58 | 0.13 | 96 | 1009.0 | |
| 20260510091542 | 8 | 0.0 | 0.0 | 0.00 | 0.58 | 0.13 | 96 | 1008.9 | |
| 20260510090038 | 8 | 0.0 | 0.0 | 0.00 | 0.58 | 0.13 | 96 | 1008.6 | |
| 20260510084535 | 7 | 0.0 | 0.0 | 0.00 | 0.61 | 0.13 | 96 | 1008.7 | |
| 20260510083034 | 7 | 0.0 | 0.0 | 0.03 | 0.61 | 0.13 | 95 | 1008.7 | |
| 20260510081533 | 7 | 0.0 | 0.0 | 0.03 | 0.61 | 0.13 | 95 | 1008.5 | |
| 20260510080037 | 7 | 0.0 | 0.0 | 0.03 | 0.61 | 0.13 | 94 | 1008.5 | |
| 20260510074531 | 7 | 0.0 | 0.0 | 0.03 | 0.64 | 0.13 | 94 | 1008.4 | |
| 20260510073039 | 8 | 0.0 | 0.0 | 0.00 | 0.61 | 0.10 | 94 | 1008.2 | |
| 20260510071528 | 8 | 0.0 | 0.0 | 0.00 | 0.61 | 0.10 | 94 | 1008.2 | |
| 20260510070030 | 8 | 0.0 | 0.0 | 0.00 | 0.61 | 0.10 | 94 | 1008.4 | |
| 20260510064524 | 8 | 0.0 | 0.0 | 0.00 | 0.66 | 0.10 | 94 | 1008.3 | |
| 20260510063023 | 8 | 0.0 | 0.0 | 0.00 | 0.66 | 0.10 | 94 | 1008.4 | |
| 20260510061521 | 8 | 0.0 | 0.0 | 0.03 | 0.66 | 0.10 | 94 | 1009.1 | |
| 20260510060019 | 8 | 0.0 | 0.0 | 0.05 | 0.66 | 0.10 | 94 | 1009.0 | |
| 20260510054519 | 8 | 0.0 | 0.0 | 0.10 | 0.69 | 0.10 | 94 | 1009.0 | |
| 20260510053043 | 9 | 0.0 | 0.0 | 0.10 | 0.69 | 0.10 | 94 | 1009.8 | |
| 20260510051518 | 9 | 0.0 | 0.0 | 0.08 | 0.66 | 0.08 | 94 | 1009.9 | |
| 20260510050023 | 9 | 0.0 | 0.0 | 0.05 | 0.64 | 0.05 | 94 | 1010.2 | |
| 20260510044517 | 9 | 0.0 | 0.0 | 0.00 | 0.58 | 0.00 | 94 | 1010.4 | |
| 20260510043026 | 9 | 0.0 | 0.0 | 0.00 | 0.58 | 0.00 | 96 | 1010.2 | |
| 20260510041517 | 9 | 0.0 | 0.0 | 0.00 | 0.58 | 0.00 | 96 | 1010.2 | |
| 20260510040009 | 8 | 0.0 | 0.0 | 0.00 | 0.58 | 0.00 | 96 | 1009.2 | |
| 20260510034506 | 8 | 0.0 | 0.0 | 0.00 | 0.58 | 0.58 | 96 | 1008.6 | |
| 20260510033006 | 8 | 0.0 | 0.0 | 0.00 | 0.58 | 0.58 | 95 | 1008.6 | |
| 20260510031509 | 8 | 0.0 | 0.0 | 0.00 | 0.58 | 0.58 | 95 | 1008.6 | |
| 20260510030105 | 8 | 0.0 | 0.0 | 0.00 | 0.58 | 0.58 | 95 | 1008.3 | |
| 20260510024505 | 8 | 0.0 | 0.0 | 0.00 | 0.58 | 0.58 | 95 | 1008.2 | |
| 20260510023006 | 8 | 0.0 | 0.0 | 0.00 | 0.58 | 0.58 | 94 | 1008.2 | |
| 20260510021510 | 8 | 0.0 | 0.0 | 0.00 | 0.58 | 0.58 | 94 | 1008.1 | |
| 20260510020002 | 8 | 0.0 | 0.0 | 0.00 | 0.58 | 0.58 | 94 | 1008.1 | |
| 20260510014503 | 8 | 0.0 | 0.0 | 0.00 | 0.58 | 0.58 | 93 | 1007.9 | |
| 20260510013001 | 8 | 0.0 | 0.0 | 0.00 | 0.58 | 0.58 | 92 | 1007.8 | |
| 20260510011600 | 8 | 0.0 | 0.0 | 0.00 | 0.58 | 0.58 | 92 | 1007.9 | |
| 20260510010106 | 9 | 0.0 | 0.0 | 0.00 | 0.58 | 0.58 | 91 | 1007.8 | |
| 20260510004602 | 9 | 0.0 | 0.0 | 0.00 | 0.58 | 0.58 | 91 | 1007.5 | |
| 20260510003059 | 10 | 0.0 | 0.0 | 0.00 | 0.58 | 0.58 | 91 | 1007.1 | |
| 20260510001558 | 10 | 0.0 | 0.0 | 0.00 | 0.58 | 0.58 | 90 | 1007.2 | |
| 20260509234557 | 11 | 0.0 | 0.0 | 0.00 | 0.58 | 0.58 | 91 | 1007.1 | |
| 20260509233058 | 11 | 0.0 | 0.0 | 0.00 | 0.58 | 0.58 | 91 | 1006.9 | |
| 20260509231556 | 11 | 0.0 | 0.0 | 0.00 | 0.58 | 0.58 | 92 | 1006.6 | |
| 20260509230056 | 11 | 0.0 | 0.0 | 0.00 | 0.58 | 0.58 | 92 | 1006.6 | |
| 20260509224552 | 11 | 0.0 | 0.0 | 0.00 | 0.58 | 0.58 | 92 | 1006.9 | |
| 20260509223051 | 11 | 0.0 | 0.0 | 0.00 | 0.58 | 0.58 | 92 | 1006.8 | |
| 20260509221548 | 11 | 0.0 | 0.0 | 0.00 | 0.58 | 0.58 | 92 | 1006.7 | |
| 20260509220047 | 11 | 0.0 | 0.0 | 0.00 | 0.58 | 0.58 | 93 | 1006.8 | |
| 20260509214559 | 11 | 0.0 | 0.0 | 0.00 | 0.58 | 0.58 | 92 | 1006.9 | |
| 20260509213040 | 11 | 0.0 | 0.0 | 0.00 | 0.58 | 0.58 | 94 | 1006.9 | |
| 20260509211535 | 10 | 0.0 | 0.0 | 0.00 | 0.58 | 0.58 | 93 | 1007.1 | |
| 20260509210035 | 10 | 0.0 | 0.0 | 0.00 | 0.58 | 0.58 | 94 | 1007.3 | |
| 20260509204536 | 10 | 0.0 | 0.0 | 0.03 | 0.58 | 0.58 | 94 | 1007.3 | |
| 20260509203030 | 10 | 0.0 | 0.0 | 0.05 | 0.58 | 0.58 | 95 | 1007.5 | |
| 20260509201526 | 10 | 0.0 | 0.0 | 0.05 | 0.58 | 0.58 | 95 | 1007.6 | |
| 20260509200024 | 10 | 0.0 | 0.0 | 0.08 | 0.58 | 0.58 | 95 | 1007.7 | |
| 20260509194524 | 10 | 0.0 | 0.0 | 0.08 | 0.56 | 0.56 | 95 | 1007.8 | |
| 20260509193027 | 10 | 0.0 | 0.0 | 0.15 | 0.53 | 0.53 | 95 | 1008.0 | |
| 20260509191527 | 10 | 0.0 | 0.0 | 0.20 | 0.53 | 0.53 | 94 | 1008.0 | |
| 20260509190028 | 10 | 0.0 | 0.0 | 0.23 | 0.51 | 0.51 | 95 | 1008.1 | |
| 20260509184530 | 9 | 0.0 | 0.0 | 0.25 | 0.48 | 0.48 | 94 | 1008.2 | |
| 20260509183011 | 9 | 0.0 | 0.0 | 0.18 | 0.38 | 0.38 | 94 | 1008.3 | |
| 20260509181507 | 9 | 0.0 | 0.0 | 0.13 | 0.30 | 0.30 | 94 | 1008.2 | |
| 20260509180005 | 9 | 0.0 | 0.0 | 0.10 | 0.25 | 0.25 | 94 | 1008.2 | |
| 20260509174505 | 9 | 0.0 | 0.0 | 0.08 | 0.23 | 0.23 | 95 | 1008.2 | |
| 20260509173004 | 9 | 0.0 | 0.0 | 0.05 | 0.20 | 0.20 | 95 | 1008.1 | |
| 20260509171600 | 9 | 0.0 | 0.0 | 0.03 | 0.18 | 0.18 | 94 | 1008.1 | |
| 20260509170101 | 9 | 0.0 | 0.0 | 0.03 | 0.15 | 0.15 | 94 | 1008.1 | |
| 20260509164532 | 9 | 0.0 | 0.0 | 0.03 | 0.15 | 0.15 | 94 | 1008.1 | |
| 20260509163039 | 9 | 0.0 | 0.0 | 0.03 | 0.15 | 0.15 | 94 | 1008.2 | |
| 20260509161531 | 9 | 0.0 | 0.0 | 0.03 | 0.15 | 0.15 | 95 | 1008.4 | |
| 20260509160029 | 9 | 0.0 | 0.0 | 0.00 | 0.13 | 0.13 | 95 | 1008.5 | |
| 20260509154527 | 9 | 0.0 | 0.0 | 0.00 | 0.13 | 0.13 | 95 | 1008.6 |